Stickney, South Dakota
Current Conditions -  °F | °C
As of 5:25 AM on Wednesday 26 Nov 2014 (Local Time) from KMHE Reporting Station
Light Snow Light Snow  
Wind Chill: 11°   Ceiling: 1200
Heat Index: 26°   Visibility: 4mi
Dew Point: 23°   Wind: 24mph
Humidity: 88%   Direction: 350°N
Pressure: 30.04"   Gusts: 37mph
Location:  43.59°N, 98.44°W
Report Text: KMHE 261125Z AUTO 35021G32KT 4SM -SN BR BKN012 BKN021 OVC027 M03/M05 A3004 RMK AO2 PK WND 35034/1113 PRESRR P0000 T10331050 $
Loading
Personal Weather Stations






























Interactive Weather Map New forecast layout! Learn more

10-Day Weather Forecast

Advertisements
Track Severe Weather on mobile